CheckWX is a tool to help pilots better visualize weather data.  It is not intended as a substitute for an official pre-flight weather briefing.

15:57:21 UTC

KEDE METAR
Northeastern Regional Airport
Edenton, North Carolina, USA
Current

22 mins ago

KEDE 211535Z AUTO 01007KT 10SM CLR 11/03 A3030 RMK AO2 T01110032
Observed
Nov-21 @ 15:35 UTC
Wind
  • 010° at 7 KTS
Visibility
10 SM
Flight Rules
VFR
Cloud Levels
  • Clear skies
Temperature
11°C / 52°F
Dewpoint
C / 37°F
Humidity
58%
Altimeter
30.3" Hg
Pressure
1026.12 hPa
Previous

42 mins ago

KEDE 211515Z AUTO 02006KT 10SM CLR 11/03 A3030 RMK AO2 T01080034
Observed
Nov-21 @ 15:15 UTC
Wind
  • 020° at 6 KTS
Visibility
10 SM
Flight Rules
VFR
Cloud Levels
  • Clear skies
Temperature
11°C / 52°F
Dewpoint
C / 37°F
Humidity
58%
Altimeter
30.3" Hg
Pressure
1026.12 hPa
Previous

1 hour ago

KEDE 211455Z AUTO 01006KT 10SM CLR 10/03 A3031 RMK AO2 T01010034
Observed
Nov-21 @ 14:55 UTC
Wind
  • 010° at 6 KTS
Visibility
10 SM
Flight Rules
VFR
Cloud Levels
  • Clear skies
Temperature
10°C / 50°F
Dewpoint
C / 37°F
Humidity
62%
Altimeter
30.31" Hg
Pressure
1026.42 hPa